sensor_id;sensor_type;location;lat;lon;timestamp;pressure;altitude;pressure_sealevel;temperature;humidity
57192;BME280;43052;52.588;13.396;2023-02-23T00:01:12;101012.84;;;4.18;73.57
57192;BME280;43052;52.588;13.396;2023-02-23T00:03:38;101003.19;;;4.13;73.68
57192;BME280;43052;52.588;13.396;2023-02-23T00:06:04;101008.50;;;4.17;73.54
57192;BME280;43052;52.588;13.396;2023-02-23T00:08:30;101002.59;;;4.23;73.70
57192;BME280;43052;52.588;13.396;2023-02-23T00:10:58;100995.56;;;4.19;73.59
57192;BME280;43052;52.588;13.396;2023-02-23T00:13:24;100994.84;;;4.24;73.48
57192;BME280;43052;52.588;13.396;2023-02-23T00:15:49;100994.00;;;4.24;73.49
57192;BME280;43052;52.588;13.396;2023-02-23T00:18:14;100992.25;;;4.24;73.42
57192;BME280;43052;52.588;13.396;2023-02-23T00:20:41;100973.91;;;4.14;73.22
57192;BME280;43052;52.588;13.396;2023-02-23T00:23:10;100969.63;;;4.16;73.18
57192;BME280;43052;52.588;13.396;2023-02-23T00:25:37;100999.31;;;4.30;73.41
57192;BME280;43052;52.588;13.396;2023-02-23T00:28:03;100998.47;;;4.31;73.19
57192;BME280;43052;52.588;13.396;2023-02-23T00:30:28;100982.03;;;4.29;73.51
57192;BME280;43052;52.588;13.396;2023-02-23T00:32:54;101001.91;;;4.30;73.37
57192;BME280;43052;52.588;13.396;2023-02-23T00:35:19;100981.06;;;4.24;73.23
57192;BME280;43052;52.588;13.396;2023-02-23T00:37:47;100975.91;;;4.26;72.95
57192;BME280;43052;52.588;13.396;2023-02-23T00:40:14;100994.00;;;4.24;73.19
57192;BME280;43052;52.588;13.396;2023-02-23T00:42:43;100994.91;;;4.26;73.04
57192;BME280;43052;52.588;13.396;2023-02-23T00:45:09;100987.16;;;4.26;72.95
57192;BME280;43052;52.588;13.396;2023-02-23T00:47:35;100985.41;;;4.27;73.11
57192;BME280;43052;52.588;13.396;2023-02-23T00:50:01;100982.00;;;4.28;73.00
57192;BME280;43052;52.588;13.396;2023-02-23T00:52:26;100975.03;;;4.25;73.58
57192;BME280;43052;52.588;13.396;2023-02-23T00:54:54;100972.28;;;4.19;73.01
57192;BME280;43052;52.588;13.396;2023-02-23T00:57:20;100981.78;;;4.18;73.27
57192;BME280;43052;52.588;13.396;2023-02-23T00:59:46;100984.34;;;4.18;73.04
57192;BME280;43052;52.588;13.396;2023-02-23T01:02:11;100971.31;;;4.14;73.35
57192;BME280;43052;52.588;13.396;2023-02-23T01:04:37;100969.56;;;4.13;73.09
57192;BME280;43052;52.588;13.396;2023-02-23T01:07:02;100984.25;;;4.14;73.34
57192;BME280;43052;52.588;13.396;2023-02-23T01:09:30;100988.50;;;4.12;73.46
57192;BME280;43052;52.588;13.396;2023-02-23T01:11:56;100987.72;;;4.14;73.32
57192;BME280;43052;52.588;13.396;2023-02-23T01:14:25;100977.19;;;4.08;73.12
57192;BME280;43052;52.588;13.396;2023-02-23T01:16:51;100972.94;;;4.10;73.00
57192;BME280;43052;52.588;13.396;2023-02-23T01:19:16;100975.53;;;4.10;73.19
57192;BME280;43052;52.588;13.396;2023-02-23T01:21:41;100976.47;;;4.14;73.25
57192;BME280;43052;52.588;13.396;2023-02-23T01:24:07;100958.00;;;3.98;73.26
57192;BME280;43052;52.588;13.396;2023-02-23T01:26:35;100967.66;;;4.05;73.31
57192;BME280;43052;52.588;13.396;2023-02-23T01:29:04;100971.16;;;4.07;73.13
57192;BME280;43052;52.588;13.396;2023-02-23T01:31:32;100964.09;;;4.00;73.22
57192;BME280;43052;52.588;13.396;2023-02-23T01:34:01;100963.34;;;4.06;73.22
57192;BME280;43052;52.588;13.396;2023-02-23T01:36:27;100956.44;;;4.05;73.44
57192;BME280;43052;52.588;13.396;2023-02-23T01:38:55;100956.38;;;4.03;73.20
57192;BME280;43052;52.588;13.396;2023-02-23T01:41:23;100964.22;;;4.06;72.95
57192;BME280;43052;52.588;13.396;2023-02-23T01:43:59;100971.06;;;4.04;73.34
57192;BME280;43052;52.588;13.396;2023-02-23T01:46:25;100964.22;;;4.06;73.31
57192;BME280;43052;52.588;13.396;2023-02-23T01:48:51;100954.59;;;4.01;73.09
57192;BME280;43052;52.588;13.396;2023-02-23T01:51:22;100939.78;;;3.94;73.40
57192;BME280;43052;52.588;13.396;2023-02-23T01:53:55;100951.06;;;3.97;73.27
57192;BME280;43052;52.588;13.396;2023-02-23T01:56:25;100952.78;;;3.97;73.19
57192;BME280;43052;52.588;13.396;2023-02-23T01:58:56;100946.69;;;3.95;73.19
57192;BME280;43052;52.588;13.396;2023-02-23T02:01:23;100952.72;;;3.95;73.30
57192;BME280;43052;52.588;13.396;2023-02-23T02:04:00;100943.22;;;3.94;73.38
57192;BME280;43052;52.588;13.396;2023-02-23T02:06:27;100949.19;;;3.91;73.56
57192;BME280;43052;52.588;13.396;2023-02-23T02:08:55;100939.44;;;3.80;73.54
57192;BME280;43052;52.588;13.396;2023-02-23T02:11:22;100947.38;;;3.87;73.42
57192;BME280;43052;52.588;13.396;2023-02-23T02:14:09;100938.63;;;3.82;73.31
57192;BME280;43052;52.588;13.396;2023-02-23T02:17:06;100916.00;;;3.73;73.57
57192;BME280;43052;52.588;13.396;2023-02-23T02:29:26;100915.00;;;3.68;73.78
57192;BME280;43052;52.588;13.396;2023-02-23T02:37:42;100919.22;;;3.65;73.98
57192;BME280;43052;52.588;13.396;2023-02-23T02:40:21;100918.16;;;3.58;74.13
57192;BME280;43052;52.588;13.396;2023-02-23T02:43:06;100925.19;;;3.62;74.27
57192;BME280;43052;52.588;13.396;2023-02-23T02:45:51;100912.97;;;3.56;74.37
57192;BME280;43052;52.588;13.396;2023-02-23T02:48:39;100906.84;;;3.53;74.56
57192;BME280;43052;52.588;13.396;2023-02-23T02:51:22;100914.69;;;3.56;74.33
57192;BME280;43052;52.588;13.396;2023-02-23T02:53:57;100910.34;;;3.55;74.39
57192;BME280;43052;52.588;13.396;2023-02-23T02:56:31;100902.41;;;3.49;74.56
57192;BME280;43052;52.588;13.396;2023-02-23T02:59:00;100902.50;;;3.52;74.67
57192;BME280;43052;52.588;13.396;2023-02-23T03:01:29;100906.84;;;3.53;74.44
57192;BME280;43052;52.588;13.396;2023-02-23T03:04:23;100899.81;;;3.47;74.48
57192;BME280;43052;52.588;13.396;2023-02-23T03:07:19;100905.06;;;3.50;74.36
57192;BME280;43052;52.588;13.396;2023-02-23T03:10:39;100891.94;;;3.42;74.57
57192;BME280;43052;52.588;13.396;2023-02-23T03:13:39;100889.47;;;3.47;74.68
57192;BME280;43052;52.588;13.396;2023-02-23T03:16:37;100890.22;;;3.43;74.53
57192;BME280;43052;52.588;13.396;2023-02-23T03:19:29;100886.72;;;3.41;74.84
57192;BME280;43052;52.588;13.396;2023-02-23T03:25:06;100883.13;;;3.36;74.76
57192;BME280;43052;52.588;13.396;2023-02-23T03:27:57;100876.19;;;3.33;75.03
57192;BME280;43052;52.588;13.396;2023-02-23T03:31:13;100890.88;;;3.36;74.90
57192;BME280;43052;52.588;13.396;2023-02-23T03:34:27;100876.88;;;3.27;75.08
57192;BME280;43052;52.588;13.396;2023-02-23T03:37:28;100887.44;;;3.35;75.14
57192;BME280;43052;52.588;13.396;2023-02-23T03:40:20;100885.66;;;3.33;75.20
57192;BME280;43052;52.588;13.396;2023-02-23T03:43:10;100881.28;;;3.30;75.20
57192;BME280;43052;52.588;13.396;2023-02-23T03:45:56;100887.44;;;3.35;74.92
57192;BME280;43052;52.588;13.396;2023-02-23T03:48:42;100891.78;;;3.36;75.01
57192;BME280;43052;52.588;13.396;2023-02-23T03:51:30;100880.41;;;3.31;75.14
57192;BME280;43052;52.588;13.396;2023-02-23T03:54:19;100884.69;;;3.29;75.04
57192;BME280;43052;52.588;13.396;2023-02-23T03:57:07;100872.53;;;3.26;75.09
57192;BME280;43052;52.588;13.396;2023-02-23T03:59:56;100874.25;;;3.24;75.12
57192;BME280;43052;52.588;13.396;2023-02-23T04:02:43;100875.88;;;3.21;75.44
57192;BME280;43052;52.588;13.396;2023-02-23T04:05:28;100873.94;;;3.13;75.48
57192;BME280;43052;52.588;13.396;2023-02-23T04:08:17;100872.13;;;3.09;75.53
57192;BME280;43052;52.588;13.396;2023-02-23T04:11:13;100871.03;;;3.01;75.53
57192;BME280;43052;52.588;13.396;2023-02-23T04:14:00;100881.28;;;2.98;75.59
57192;BME280;43052;52.588;13.396;2023-02-23T04:16:29;100874.34;;;2.97;75.88
57192;BME280;43052;52.588;13.396;2023-02-23T04:18:56;100875.97;;;2.93;76.02
57192;BME280;43052;52.588;13.396;2023-02-23T04:21:21;100875.84;;;2.89;75.88
57192;BME280;43052;52.588;13.396;2023-02-23T04:23:46;100868.88;;;2.85;76.15
57192;BME280;43052;52.588;13.396;2023-02-23T04:26:12;100867.81;;;2.78;76.30
57192;BME280;43052;52.588;13.396;2023-02-23T04:28:37;100881.78;;;2.85;76.37
57192;BME280;43052;52.588;13.396;2023-02-23T04:31:02;100877.34;;;2.80;76.42
57192;BME280;43052;52.588;13.396;2023-02-23T04:33:28;100855.50;;;2.69;76.43
57192;BME280;43052;52.588;13.396;2023-02-23T04:35:53;100869.47;;;2.76;76.38
57192;BME280;43052;52.588;13.396;2023-02-23T04:38:19;100860.72;;;2.71;76.71
57192;BME280;43052;52.588;13.396;2023-02-23T04:40:45;100858.88;;;2.66;76.86
57192;BME280;43052;52.588;13.396;2023-02-23T04:43:13;100860.59;;;2.66;76.68
57192;BME280;43052;52.588;13.396;2023-02-23T04:45:39;100859.78;;;2.67;76.76
57192;BME280;43052;52.588;13.396;2023-02-23T04:48:04;100841.56;;;2.62;77.06
57192;BME280;43052;52.588;13.396;2023-02-23T04:50:30;100853.56;;;2.60;76.78
57192;BME280;43052;52.588;13.396;2023-02-23T04:52:55;100856.03;;;2.57;76.90
57192;BME280;43052;52.588;13.396;2023-02-23T04:55:22;100857.78;;;2.58;77.04
57192;BME280;43052;52.588;13.396;2023-02-23T04:57:48;100849.97;;;2.55;77.21
57192;BME280;43052;52.588;13.396;2023-02-23T05:00:14;100852.47;;;2.52;77.19
57192;BME280;43052;52.588;13.396;2023-02-23T05:02:39;100845.41;;;2.46;77.09
57192;BME280;43052;52.588;13.396;2023-02-23T05:05:05;100852.44;;;2.50;76.94
57192;BME280;43052;52.588;13.396;2023-02-23T05:07:32;100850.59;;;2.48;77.28
57192;BME280;43052;52.588;13.396;2023-02-23T05:09:57;100847.28;;;2.52;77.19
57192;BME280;43052;52.588;13.396;2023-02-23T05:12:22;100836.72;;;2.44;77.21
57192;BME280;43052;52.588;13.396;2023-02-23T05:14:47;100833.28;;;2.44;77.32
57192;BME280;43052;52.588;13.396;2023-02-23T05:17:12;100827.06;;;2.37;77.29
57192;BME280;43052;52.588;13.396;2023-02-23T05:19:38;100844.47;;;2.44;77.63
57192;BME280;43052;52.588;13.396;2023-02-23T05:22:03;100835.75;;;2.39;77.44
57192;BME280;43052;52.588;13.396;2023-02-23T05:24:28;100831.44;;;2.40;77.25
57192;BME280;43052;52.588;13.396;2023-02-23T05:26:53;100836.66;;;2.41;77.35
57192;BME280;43052;52.588;13.396;2023-02-23T05:29:19;100830.44;;;2.34;77.12
57192;BME280;43052;52.588;13.396;2023-02-23T05:31:44;100832.13;;;2.34;77.30
57192;BME280;43052;52.588;13.396;2023-02-23T05:34:10;100831.16;;;2.30;77.45
57192;BME280;43052;52.588;13.396;2023-02-23T05:36:37;100838.00;;;2.28;77.39
57192;BME280;43052;52.588;13.396;2023-02-23T05:39:02;100842.38;;;2.31;77.35
57192;BME280;43052;52.588;13.396;2023-02-23T05:41:28;100826.63;;;2.22;77.47
57192;BME280;43052;52.588;13.396;2023-02-23T05:43:54;100840.47;;;2.24;77.58
57192;BME280;43052;52.588;13.396;2023-02-23T05:46:24;100840.47;;;2.24;77.50
57192;BME280;43052;52.588;13.396;2023-02-23T05:48:50;100850.78;;;2.24;77.57
57192;BME280;43052;52.588;13.396;2023-02-23T05:51:19;100848.06;;;2.19;77.49
57192;BME280;43052;52.588;13.396;2023-02-23T05:53:44;100852.41;;;2.20;77.82
57192;BME280;43052;52.588;13.396;2023-02-23T05:56:13;100857.50;;;2.18;77.49
57192;BME280;43052;52.588;13.396;2023-02-23T05:58:45;100855.44;;;2.08;77.46
57192;BME280;43052;52.588;13.396;2023-02-23T06:01:10;100849.44;;;2.08;77.90
57192;BME280;43052;52.588;13.396;2023-02-23T06:03:36;100855.56;;;2.11;77.76
57192;BME280;43052;52.588;13.396;2023-02-23T06:06:01;100864.16;;;2.12;77.77
57192;BME280;43052;52.588;13.396;2023-02-23T06:08:26;100869.28;;;2.10;77.84
57192;BME280;43052;52.588;13.396;2023-02-23T06:10:52;100864.16;;;2.12;77.78
57192;BME280;43052;52.588;13.396;2023-02-23T06:13:18;100872.03;;;2.16;77.75
57192;BME280;43052;52.588;13.396;2023-02-23T06:15:45;100873.78;;;2.17;77.70
57192;BME280;43052;52.588;13.396;2023-02-23T06:18:10;100866.88;;;2.16;77.64
57192;BME280;43052;52.588;13.396;2023-02-23T06:20:36;100869.47;;;2.16;77.49
57192;BME280;43052;52.588;13.396;2023-02-23T06:23:02;100873.91;;;2.21;77.75
57192;BME280;43052;52.588;13.396;2023-02-23T06:25:27;100871.47;;;2.25;77.63
57192;BME280;43052;52.588;13.396;2023-02-23T06:27:53;100870.63;;;2.26;77.60
57192;BME280;43052;52.588;13.396;2023-02-23T06:30:19;100858.56;;;2.25;77.42
57192;BME280;43052;52.588;13.396;2023-02-23T06:32:44;100861.19;;;2.27;77.10
57192;BME280;43052;52.588;13.396;2023-02-23T06:35:09;100863.03;;;2.31;77.12
57192;BME280;43052;52.588;13.396;2023-02-23T06:37:35;100872.94;;;2.46;77.30
57192;BME280;43052;52.588;13.396;2023-02-23T06:40:02;100873.91;;;2.49;77.02
57192;BME280;43052;52.588;13.396;2023-02-23T06:42:27;100879.34;;;2.59;77.16
57192;BME280;43052;52.588;13.396;2023-02-23T06:44:53;100880.34;;;2.64;76.74
57192;BME280;43052;52.588;13.396;2023-02-23T06:47:18;100867.56;;;2.69;76.53
57192;BME280;43052;52.588;13.396;2023-02-23T06:49:43;100877.41;;;2.82;76.13
57192;BME280;43052;52.588;13.396;2023-02-23T06:52:09;100899.19;;;2.92;75.54
57192;BME280;43052;52.588;13.396;2023-02-23T06:54:37;100882.78;;;2.90;75.87
57192;BME280;43052;52.588;13.396;2023-02-23T06:57:04;100886.66;;;3.06;75.34
57192;BME280;43052;52.588;13.396;2023-02-23T06:59:29;100888.66;;;3.16;75.14
57192;BME280;43052;52.588;13.396;2023-02-23T07:01:55;100893.31;;;3.29;74.74
57192;BME280;43052;52.588;13.396;2023-02-23T07:04:20;100883.34;;;3.43;74.65
57192;BME280;43052;52.588;13.396;2023-02-23T07:06:45;100887.78;;;3.49;74.01
57192;BME280;43052;52.588;13.396;2023-02-23T07:09:10;100885.31;;;3.54;73.87
57192;BME280;43052;52.588;13.396;2023-02-23T07:11:36;100880.44;;;3.66;73.06
57192;BME280;43052;52.588;13.396;2023-02-23T07:14:01;100874.78;;;3.81;72.98
57192;BME280;43052;52.588;13.396;2023-02-23T07:16:29;100879.56;;;4.02;71.92
57192;BME280;43052;52.588;13.396;2023-02-23T07:22:57;100880.34;;;4.36;71.28
57192;BME280;43052;52.588;13.396;2023-02-23T07:25:26;100852.53;;;4.26;70.74
57192;BME280;43052;52.588;13.396;2023-02-23T07:33:50;100850.69;;;4.63;70.57
57192;BME280;43052;52.588;13.396;2023-02-23T07:36:20;100878.22;;;5.02;69.40
57192;BME280;43052;52.588;13.396;2023-02-23T07:39:02;100847.44;;;5.20;68.34
57192;BME280;43052;52.588;13.396;2023-02-23T07:41:51;100879.41;;;5.69;67.46
57192;BME280;43052;52.588;13.396;2023-02-23T07:44:59;100877.50;;;6.13;66.36
57192;BME280;43052;52.588;13.396;2023-02-23T07:47:41;100825.28;;;5.95;65.90
57192;BME280;43052;52.588;13.396;2023-02-23T07:50:31;100815.66;;;5.88;65.69
57192;BME280;43052;52.588;13.396;2023-02-23T07:53:05;100839.88;;;5.86;65.96
57192;BME280;43052;52.588;13.396;2023-02-23T07:55:33;100820.72;;;5.77;65.97
57192;BME280;43052;52.588;13.396;2023-02-23T07:58:01;100832.16;;;5.92;66.14
57192;BME280;43052;52.588;13.396;2023-02-23T08:00:29;100862.03;;;6.20;66.39
57192;BME280;43052;52.588;13.396;2023-02-23T08:03:01;100847.69;;;6.50;66.28
57192;BME280;43052;52.588;13.396;2023-02-23T08:05:29;100835.97;;;6.83;65.85
57192;BME280;43052;52.588;13.396;2023-02-23T08:08:06;100807.72;;;7.20;64.41
57192;BME280;43052;52.588;13.396;2023-02-23T08:10:31;100813.06;;;7.34;63.33
57192;BME280;43052;52.588;13.396;2023-02-23T08:13:25;100867.19;;;7.77;63.13
57192;BME280;43052;52.588;13.396;2023-02-23T08:16:06;100846.47;;;7.91;60.99
57192;BME280;43052;52.588;13.396;2023-02-23T08:18:31;100838.84;;;8.21;61.04
57192;BME280;43052;52.588;13.396;2023-02-23T08:20:58;100822.53;;;8.62;60.07
57192;BME280;43052;52.588;13.396;2023-02-23T08:23:24;100830.50;;;9.16;58.62
57192;BME280;43052;52.588;13.396;2023-02-23T08:25:49;100843.59;;;9.60;58.19
57192;BME280;43052;52.588;13.396;2023-02-23T08:28:14;100827.00;;;9.87;57.73
57192;BME280;43052;52.588;13.396;2023-02-23T08:30:40;100853.03;;;10.41;56.87
57192;BME280;43052;52.588;13.396;2023-02-23T08:33:05;100841.56;;;10.79;55.49
57192;BME280;43052;52.588;13.396;2023-02-23T08:35:31;100844.78;;;11.23;54.23
57192;BME280;43052;52.588;13.396;2023-02-23T08:37:56;100842.75;;;11.59;52.63
57192;BME280;43052;52.588;13.396;2023-02-23T08:40:22;100839.06;;;11.85;52.26
57192;BME280;43052;52.588;13.396;2023-02-23T08:42:47;100838.75;;;12.16;50.86
57192;BME280;43052;52.588;13.396;2023-02-23T08:45:13;100851.47;;;12.50;51.52
57192;BME280;43052;52.588;13.396;2023-02-23T08:47:38;100840.44;;;12.92;50.37
57192;BME280;43052;52.588;13.396;2023-02-23T08:50:04;100838.06;;;13.35;49.81
57192;BME280;43052;52.588;13.396;2023-02-23T08:52:30;100841.06;;;13.69;49.60
57192;BME280;43052;52.588;13.396;2023-02-23T08:54:55;100832.09;;;13.79;48.88
57192;BME280;43052;52.588;13.396;2023-02-23T08:57:21;100846.06;;;13.82;48.75
57192;BME280;43052;52.588;13.396;2023-02-23T08:59:46;100833.44;;;13.52;48.02
57192;BME280;43052;52.588;13.396;2023-02-23T09:02:13;100849.66;;;13.20;48.20
57192;BME280;43052;52.588;13.396;2023-02-23T09:04:39;100853.72;;;12.80;49.27
57192;BME280;43052;52.588;13.396;2023-02-23T09:07:09;100855.00;;;12.48;49.63
57192;BME280;43052;52.588;13.396;2023-02-23T09:09:37;100847.53;;;12.12;50.34
57192;BME280;43052;52.588;13.396;2023-02-23T09:12:02;100852.09;;;11.88;50.96
57192;BME280;43052;52.588;13.396;2023-02-23T09:14:28;100836.66;;;11.59;51.41
57192;BME280;43052;52.588;13.396;2023-02-23T09:16:54;100844.69;;;11.39;51.91
57192;BME280;43052;52.588;13.396;2023-02-23T09:19:19;100843.00;;;11.25;52.79
57192;BME280;43052;52.588;13.396;2023-02-23T09:21:44;100842.16;;;11.28;52.58
57192;BME280;43052;52.588;13.396;2023-02-23T09:24:09;100837.69;;;11.41;52.65
57192;BME280;43052;52.588;13.396;2023-02-23T09:26:35;100840.06;;;11.67;52.05
57192;BME280;43052;52.588;13.396;2023-02-23T09:29:05;100840.81;;;11.82;51.59
57192;BME280;43052;52.588;13.396;2023-02-23T09:31:31;100845.81;;;12.11;50.72
57192;BME280;43052;52.588;13.396;2023-02-23T09:33:56;100837.66;;;12.34;50.02
57192;BME280;43052;52.588;13.396;2023-02-23T09:36:23;100842.50;;;12.70;49.92
57192;BME280;43052;52.588;13.396;2023-02-23T09:38:51;100851.59;;;13.07;49.11
57192;BME280;43052;52.588;13.396;2023-02-23T09:41:45;100836.31;;;13.35;48.93
57192;BME280;43052;52.588;13.396;2023-02-23T09:44:36;100833.66;;;13.90;47.91
57192;BME280;43052;52.588;13.396;2023-02-23T09:49:59;100833.78;;;14.31;47.27
57192;BME280;43052;52.588;13.396;2023-02-23T09:52:36;100836.63;;;14.20;47.19
57192;BME280;43052;52.588;13.396;2023-02-23T09:58:27;100835.22;;;14.00;47.90
57192;BME280;43052;52.588;13.396;2023-02-23T10:01:21;100846.59;;;14.48;46.96
57192;BME280;43052;52.588;13.396;2023-02-23T10:03:59;100838.53;;;14.55;46.24
57192;BME280;43052;52.588;13.396;2023-02-23T10:06:26;100842.44;;;14.80;46.08
57192;BME280;43052;52.588;13.396;2023-02-23T10:09:10;100837.53;;;15.41;45.75
57192;BME280;43052;52.588;13.396;2023-02-23T10:17:38;100825.22;;;18.57;40.22
57192;BME280;43052;52.588;13.396;2023-02-23T10:20:20;100830.66;;;19.22;39.22
57192;BME280;43052;52.588;13.396;2023-02-23T10:22:48;100830.25;;;19.54;38.75
57192;BME280;43052;52.588;13.396;2023-02-23T10:25:19;100827.91;;;20.10;38.06
57192;BME280;43052;52.588;13.396;2023-02-23T10:27:48;100830.84;;;20.43;37.19
57192;BME280;43052;52.588;13.396;2023-02-23T10:33:20;100827.25;;;20.44;36.46
57192;BME280;43052;52.588;13.396;2023-02-23T10:35:46;100830.44;;;19.92;37.32
57192;BME280;43052;52.588;13.396;2023-02-23T10:38:14;100824.84;;;19.98;37.21
57192;BME280;43052;52.588;13.396;2023-02-23T10:40:40;100818.94;;;20.71;36.35
57192;BME280;43052;52.588;13.396;2023-02-23T10:43:10;100827.06;;;21.60;34.75
57192;BME280;43052;52.588;13.396;2023-02-23T10:45:43;100812.97;;;22.27;33.77
57192;BME280;43052;52.588;13.396;2023-02-23T10:48:15;100815.16;;;22.52;32.76
57192;BME280;43052;52.588;13.396;2023-02-23T10:50:41;100810.44;;;22.24;33.00
57192;BME280;43052;52.588;13.396;2023-02-23T10:53:25;100809.00;;;21.67;33.24
57192;BME280;43052;52.588;13.396;2023-02-23T10:56:17;100812.03;;;21.59;33.70
57192;BME280;43052;52.588;13.396;2023-02-23T10:58:45;100803.69;;;21.31;33.65
57192;BME280;43052;52.588;13.396;2023-02-23T11:01:13;100809.72;;;21.34;34.60
57192;BME280;43052;52.588;13.396;2023-02-23T11:03:41;100799.47;;;20.90;34.59
57192;BME280;43052;52.588;13.396;2023-02-23T11:06:31;100810.63;;;20.01;36.55
57192;BME280;43052;52.588;13.396;2023-02-23T11:08:56;100808.16;;;19.33;37.94
57192;BME280;43052;52.588;13.396;2023-02-23T11:11:26;100806.25;;;18.68;39.23
57192;BME280;43052;52.588;13.396;2023-02-23T11:13:54;100791.28;;;17.96;40.08
57192;BME280;43052;52.588;13.396;2023-02-23T11:16:36;100802.38;;;17.28;41.49
57192;BME280;43052;52.588;13.396;2023-02-23T11:19:04;100803.13;;;16.75;42.54
57192;BME280;43052;52.588;13.396;2023-02-23T11:21:34;100802.22;;;16.48;43.45
57192;BME280;43052;52.588;13.396;2023-02-23T11:24:23;100797.31;;;16.34;43.90
57192;BME280;43052;52.588;13.396;2023-02-23T11:26:51;100790.72;;;16.19;44.14
57192;BME280;43052;52.588;13.396;2023-02-23T11:29:30;100802.56;;;16.04;44.69
57192;BME280;43052;52.588;13.396;2023-02-23T11:32:14;100781.09;;;15.83;45.07
57192;BME280;43052;52.588;13.396;2023-02-23T11:34:43;100792.09;;;15.66;45.11
57192;BME280;43052;52.588;13.396;2023-02-23T11:37:19;100784.84;;;15.40;45.91
57192;BME280;43052;52.588;13.396;2023-02-23T11:39:59;100789.38;;;14.98;46.47
57192;BME280;43052;52.588;13.396;2023-02-23T11:42:30;100785.56;;;14.72;47.08
57192;BME280;43052;52.588;13.396;2023-02-23T11:45:15;100782.19;;;14.67;47.45
57192;BME280;43052;52.588;13.396;2023-02-23T11:47:44;100773.34;;;14.70;47.51
57192;BME280;43052;52.588;13.396;2023-02-23T11:50:34;100766.94;;;14.82;47.81
57192;BME280;43052;52.588;13.396;2023-02-23T11:53:05;100764.19;;;14.86;47.27
57192;BME280;43052;52.588;13.396;2023-02-23T11:55:32;100766.69;;;14.93;47.84
57192;BME280;43052;52.588;13.396;2023-02-23T11:58:24;100769.25;;;14.96;47.73
57192;BME280;43052;52.588;13.396;2023-02-23T12:00:59;100769.06;;;15.03;47.47
57192;BME280;43052;52.588;13.396;2023-02-23T12:03:26;100767.91;;;15.15;47.81
57192;BME280;43052;52.588;13.396;2023-02-23T12:05:54;100761.66;;;15.19;47.85
57192;BME280;43052;52.588;13.396;2023-02-23T12:11:04;100754.47;;;15.26;47.88
57192;BME280;43052;52.588;13.396;2023-02-23T12:13:40;100752.97;;;15.16;47.72
57192;BME280;43052;52.588;13.396;2023-02-23T12:16:25;100747.41;;;14.92;48.21
57192;BME280;43052;52.588;13.396;2023-02-23T12:18:54;100763.69;;;15.08;48.17
57192;BME280;43052;52.588;13.396;2023-02-23T12:26:56;100756.19;;;15.27;48.15
57192;BME280;43052;52.588;13.396;2023-02-23T12:29:35;100751.84;;;15.26;48.19
57192;BME280;43052;52.588;13.396;2023-02-23T12:32:12;100752.75;;;15.25;48.32
57192;BME280;43052;52.588;13.396;2023-02-23T12:34:48;100747.22;;;15.34;48.38
57192;BME280;43052;52.588;13.396;2023-02-23T12:40:11;100748.66;;;15.12;48.68
57192;BME280;43052;52.588;13.396;2023-02-23T12:42:46;100749.13;;;14.93;49.02
57192;BME280;43052;52.588;13.396;2023-02-23T12:45:20;100742.25;;;14.86;49.51
57192;BME280;43052;52.588;13.396;2023-02-23T12:50:37;100732.75;;;14.80;50.06
57192;BME280;43052;52.588;13.396;2023-02-23T12:53:25;100746.38;;;14.98;49.77
57192;BME280;43052;52.588;13.396;2023-02-23T12:56:20;100742.03;;;14.97;50.07
57192;BME280;43052;52.588;13.396;2023-02-23T13:01:38;100732.72;;;15.18;50.22
57192;BME280;43052;52.588;13.396;2023-02-23T13:06:48;100732.50;;;15.26;50.25
57192;BME280;43052;52.588;13.396;2023-02-23T13:09:27;100725.69;;;15.18;50.35
57192;BME280;43052;52.588;13.396;2023-02-23T13:12:13;100718.28;;;14.98;50.44
57192;BME280;43052;52.588;13.396;2023-02-23T13:20:14;100715.25;;;14.79;51.47
57192;BME280;43052;52.588;13.396;2023-02-23T13:22:56;100712.22;;;14.55;51.76
57192;BME280;43052;52.588;13.396;2023-02-23T13:25:31;100715.34;;;14.34;52.28
57192;BME280;43052;52.588;13.396;2023-02-23T13:28:03;100713.06;;;14.17;52.86
57192;BME280;43052;52.588;13.396;2023-02-23T13:30:30;100709.44;;;14.22;53.14
57192;BME280;43052;52.588;13.396;2023-02-23T13:32:58;100715.34;;;14.34;52.98
57192;BME280;43052;52.588;13.396;2023-02-23T13:35:30;100718.72;;;14.39;52.99
57192;BME280;43052;52.588;13.396;2023-02-23T13:40:49;100725.03;;;14.32;53.14
57192;BME280;43052;52.588;13.396;2023-02-23T13:43:23;100727.81;;;14.24;53.03
57192;BME280;43052;52.588;13.396;2023-02-23T13:45:55;100727.25;;;14.09;53.21
57192;BME280;43052;52.588;13.396;2023-02-23T13:51:48;100727.88;;;13.77;54.12
57192;BME280;43052;52.588;13.396;2023-02-23T13:56:56;100727.50;;;13.52;54.68
57192;BME280;43052;52.588;13.396;2023-02-23T13:59:25;100724.31;;;13.31;55.03
57192;BME280;43052;52.588;13.396;2023-02-23T14:01:54;100720.97;;;13.23;55.35
57192;BME280;43052;52.588;13.396;2023-02-23T14:04:21;100732.41;;;13.19;55.62
57192;BME280;43052;52.588;13.396;2023-02-23T14:07:00;100725.44;;;13.18;55.99
57192;BME280;43052;52.588;13.396;2023-02-23T14:09:31;100723.94;;;13.01;56.25
57192;BME280;43052;52.588;13.396;2023-02-23T14:14:38;100724.97;;;12.92;56.71
57192;BME280;43052;52.588;13.396;2023-02-23T14:19:41;100737.59;;;12.65;57.48
57192;BME280;43052;52.588;13.396;2023-02-23T14:22:15;100737.66;;;12.62;57.62
57192;BME280;43052;52.588;13.396;2023-02-23T14:24:43;100742.91;;;12.61;57.89
57192;BME280;43052;52.588;13.396;2023-02-23T14:27:23;100743.00;;;12.56;57.82
57192;BME280;43052;52.588;13.396;2023-02-23T14:30:14;100743.16;;;12.45;58.17
57192;BME280;43052;52.588;13.396;2023-02-23T14:32:44;100738.06;;;12.30;58.13